Time;durP1;ratioP1;P1;durP2;ratioP2;P2;SDS_P1;SDS_P2;PMS_P1;PMS_P2;Temp;Humidity;BMP_temperature;BMP_pressure;BME280_temperature;BME280_humidity;BME280_pressure;Samples;Min_cycle;Max_cycle;Signal;HPM_P1;HPM_P2
2022/07/07 00:00:59;;;;;;;8.60;6.90;;;17.30;99.90;;;;;;5062201;28;20036;-85
2022/07/07 00:03:25;;;;;;;7.97;6.60;;;17.30;99.90;;;;;;5078877;28;20071;-85
2022/07/07 00:05:51;;;;;;;12.52;6.75;;;17.30;99.90;;;;;;5078952;28;20047;-85
2022/07/07 00:08:17;;;;;;;8.10;5.22;;;17.30;99.90;;;;;;5095698;28;20042;-85
2022/07/07 00:10:43;;;;;;;12.73;4.78;;;17.30;99.90;;;;;;5079340;28;20043;-86
2022/07/07 00:13:09;;;;;;;6.70;4.68;;;17.30;99.90;;;;;;5078978;28;20484;-86
2022/07/07 00:15:34;;;;;;;9.40;5.38;;;17.20;99.90;;;;;;5073984;28;20039;-85
2022/07/07 00:18:00;;;;;;;9.35;5.55;;;17.20;99.90;;;;;;5069532;28;20093;-85
2022/07/07 00:20:26;;;;;;;8.38;5.90;;;17.20;99.90;;;;;;5079525;28;20034;-85
2022/07/07 00:22:51;;;;;;;8.85;6.47;;;17.20;99.90;;;;;;5078531;28;20434;-87
2022/07/07 00:25:17;;;;;;;9.50;5.65;;;17.20;99.90;;;;;;5095563;28;20156;-85
2022/07/07 00:27:43;;;;;;;10.73;6.35;;;17.20;99.90;;;;;;5062075;28;20134;-86
2022/07/07 00:30:09;;;;;;;7.57;6.22;;;17.10;99.90;;;;;;5062819;28;20047;-85
2022/07/07 00:32:35;;;;;;;9.43;5.55;;;17.20;99.90;;;;;;5095439;28;20043;-78
2022/07/07 00:35:01;;;;;;;8.55;5.45;;;17.10;99.90;;;;;;5081947;28;20065;-78
2022/07/07 00:37:26;;;;;;;10.25;5.45;;;17.10;99.90;;;;;;5082160;28;20445;-78
2022/07/07 00:39:52;;;;;;;8.35;4.93;;;17.10;99.90;;;;;;5082230;28;20403;-77
2022/07/07 00:42:18;;;;;;;9.70;4.95;;;17.10;99.90;;;;;;5082351;28;20058;-78
2022/07/07 00:44:44;;;;;;;7.60;5.10;;;17.20;99.90;;;;;;5082096;28;20032;-78
2022/07/07 00:47:11;;;;;;;9.40;6.00;;;17.10;99.90;;;;;;5048811;28;20067;-78
2022/07/07 00:49:38;;;;;;;7.30;6.28;;;17.20;99.90;;;;;;5082442;28;20042;-78
2022/07/07 00:52:07;;;;;;;9.95;6.30;;;17.20;99.90;;;;;;5081907;28;20071;-77
2022/07/07 00:54:32;;;;;;;8.15;6.20;;;17.20;99.90;;;;;;5099059;28;20070;-78
2022/07/07 00:56:58;;;;;;;7.13;5.60;;;17.20;99.90;;;;;;5048692;28;20122;-78
2022/07/07 00:59:24;;;;;;;10.02;5.45;;;17.20;99.90;;;;;;5081657;28;20047;-78
2022/07/07 01:01:50;;;;;;;8.27;4.72;;;17.20;99.90;;;;;;5081692;28;20031;-78
2022/07/07 01:04:17;;;;;;;8.55;4.50;;;17.20;99.90;;;;;;5082201;28;20100;-78
2022/07/07 01:06:42;;;;;;;6.72;4.13;;;17.20;99.90;;;;;;5081971;28;20071;-77
2022/07/07 01:09:09;;;;;;;7.25;3.65;;;17.20;99.90;;;;;;5081563;28;20075;-78
2022/07/07 01:11:48;;;;;;;5.82;3.15;;;17.20;99.90;;;;;;5098881;28;20062;-78
2022/07/07 01:14:14;;;;;;;9.07;2.80;;;17.20;99.90;;;;;;5081560;28;20070;-78
2022/07/07 01:16:41;;;;;;;3.33;2.55;;;17.20;99.90;;;;;;5081981;28;20039;-78
2022/07/07 01:19:07;;;;;;;5.68;2.42;;;17.20;99.90;;;;;;5081554;28;20062;-78
2022/07/07 01:21:42;;;;;;;5.13;2.13;;;17.20;99.90;;;;;;5081548;28;20040;-77
2022/07/07 01:24:08;;;;;;;6.50;2.17;;;17.20;99.90;;;;;;5081498;28;20118;-78
2022/07/07 01:26:36;;;;;;;3.28;1.77;;;17.20;99.90;;;;;;5064570;28;20173;-78
2022/07/07 01:29:02;;;;;;;3.70;2.17;;;17.20;99.90;;;;;;5098343;28;20104;-85
2022/07/07 01:31:28;;;;;;;8.85;2.60;;;17.10;99.90;;;;;;5098416;28;20483;-85
2022/07/07 01:33:53;;;;;;;5.72;2.00;;;17.00;99.90;;;;;;5092850;28;20047;-85
2022/07/07 01:36:19;;;;;;;4.40;2.10;;;16.90;99.90;;;;;;5082617;28;20051;-85
2022/07/07 01:38:45;;;;;;;5.03;2.15;;;16.90;99.90;;;;;;5082420;28;20131;-85
2022/07/07 01:41:11;;;;;;;5.88;2.10;;;16.80;99.90;;;;;;5098807;28;20061;-84
2022/07/07 01:43:37;;;;;;;3.50;1.90;;;16.80;99.90;;;;;;5081804;28;20475;-85
2022/07/07 01:46:02;;;;;;;4.90;2.10;;;16.70;99.90;;;;;;5064765;28;20042;-84
2022/07/07 01:48:28;;;;;;;3.65;2.15;;;16.70;99.90;;;;;;5081424;28;20040;-85
2022/07/07 01:50:54;;;;;;;4.25;1.98;;;16.70;99.90;;;;;;5081629;28;20039;-84
2022/07/07 01:53:19;;;;;;;4.43;2.47;;;16.70;99.90;;;;;;5081381;28;20128;-85
2022/07/07 01:55:45;;;;;;;5.25;2.65;;;16.70;99.90;;;;;;5081193;28;20043;-85
2022/07/07 01:58:10;;;;;;;5.22;2.47;;;16.60;99.90;;;;;;5083750;28;20490;-84
2022/07/07 02:00:36;;;;;;;3.42;2.47;;;16.60;99.90;;;;;;5099168;28;20472;-84
2022/07/07 02:03:02;;;;;;;3.20;2.20;;;16.60;99.90;;;;;;5097753;28;20058;-84
2022/07/07 02:05:27;;;;;;;6.80;2.90;;;16.60;99.90;;;;;;5064481;28;20028;-85
2022/07/07 02:07:53;;;;;;;5.72;2.60;;;16.60;99.90;;;;;;5081008;28;20035;-85
2022/07/07 02:13:04;;;;;;;6.65;2.40;;;16.50;99.90;;;;;;5083134;28;20047;-78
2022/07/07 02:15:30;;;;;;;3.28;2.28;;;16.50;99.90;;;;;;5063846;28;20044;-78
2022/07/07 02:17:56;;;;;;;4.00;2.22;;;16.50;99.90;;;;;;5080166;28;20077;-78
2022/07/07 02:20:22;;;;;;;5.30;2.70;;;16.50;99.90;;;;;;5080593;28;20101;-78
2022/07/07 02:22:47;;;;;;;5.65;2.60;;;16.50;99.90;;;;;;5064277;28;20142;-78
2022/07/07 02:25:13;;;;;;;4.22;2.17;;;16.50;99.90;;;;;;5097584;28;20084;-79
2022/07/07 02:27:39;;;;;;;7.63;2.65;;;16.50;99.90;;;;;;5063547;28;20126;-79
2022/07/07 02:30:06;;;;;;;5.13;2.45;;;16.50;99.90;;;;;;5080094;28;20046;-79
2022/07/07 02:32:32;;;;;;;6.20;2.58;;;16.50;99.90;;;;;;5079974;28;20508;-79
2022/07/07 02:34:58;;;;;;;4.10;2.53;;;16.50;99.90;;;;;;5063346;28;20198;-79
2022/07/07 02:37:25;;;;;;;5.18;2.78;;;16.50;99.90;;;;;;5046643;28;20051;-81
2022/07/07 02:39:54;;;;;;;7.82;2.80;;;16.50;99.90;;;;;;5097508;28;20126;-81
2022/07/07 02:42:20;;;;;;;8.15;3.13;;;16.50;99.90;;;;;;5097342;28;20487;-81
2022/07/07 02:44:45;;;;;;;7.50;3.03;;;16.50;99.90;;;;;;5063610;28;20036;-88
2022/07/07 02:47:11;;;;;;;6.20;2.50;;;16.60;99.90;;;;;;5047823;28;20036;-87
2022/07/07 02:49:37;;;;;;;6.22;2.63;;;16.50;99.90;;;;;;5097303;28;20049;-86
2022/07/07 02:52:04;;;;;;;7.15;3.00;;;16.60;99.90;;;;;;5097357;28;20040;-86
2022/07/07 02:54:30;;;;;;;3.95;2.50;;;16.50;99.90;;;;;;5064427;28;20043;-87
2022/07/07 02:56:55;;;;;;;5.43;2.85;;;16.60;99.90;;;;;;5079957;28;20047;-86
2022/07/07 02:59:21;;;;;;;5.97;3.35;;;16.60;99.90;;;;;;5080160;28;20043;-85
2022/07/07 03:01:47;;;;;;;6.95;2.85;;;16.50;99.90;;;;;;5097173;28;20035;-84
2022/07/07 03:04:12;;;;;;;6.22;2.65;;;16.50;99.90;;;;;;5080571;28;20039;-85
2022/07/07 03:06:38;;;;;;;4.97;3.17;;;16.50;99.90;;;;;;5097531;28;20044;-85
2022/07/07 03:09:04;;;;;;;10.60;3.10;;;16.50;99.90;;;;;;5080400;28;20040;-85
2022/07/07 03:11:29;;;;;;;5.95;2.80;;;16.50;99.90;;;;;;5079921;28;20074;-84
2022/07/07 03:13:55;;;;;;;9.55;2.65;;;16.50;99.90;;;;;;5080200;28;20084;-84
2022/07/07 03:16:21;;;;;;;6.65;2.55;;;16.50;99.90;;;;;;5080379;28;20075;-84
2022/07/07 03:18:47;;;;;;;8.43;2.70;;;16.50;99.90;;;;;;5098170;28;20044;-84
2022/07/07 03:21:12;;;;;;;6.68;2.70;;;16.60;99.90;;;;;;5097045;28;20036;-78
2022/07/07 03:23:38;;;;;;;7.47;2.38;;;16.50;99.90;;;;;;5063574;28;20102;-78
2022/07/07 03:26:04;;;;;;;5.75;2.15;;;16.50;99.90;;;;;;5080012;28;20499;-78
2022/07/07 03:28:29;;;;;;;5.10;2.55;;;16.50;99.90;;;;;;5080247;28;20510;-78
2022/07/07 03:30:55;;;;;;;7.32;2.13;;;16.50;99.90;;;;;;5079934;28;20047;-78
2022/07/07 03:33:21;;;;;;;6.90;2.30;;;16.50;99.90;;;;;;5063099;28;20046;-77
2022/07/07 03:35:46;;;;;;;6.60;2.22;;;16.50;99.90;;;;;;5079892;28;20131;-78
2022/07/07 03:38:12;;;;;;;6.53;1.90;;;16.50;99.90;;;;;;5095944;28;20056;-78
2022/07/07 03:40:38;;;;;;;4.68;1.73;;;16.50;99.90;;;;;;5045587;28;20039;-78
2022/07/07 03:43:04;;;;;;;4.28;1.70;;;16.50;99.90;;;;;;5078468;28;20086;-84
2022/07/07 03:45:29;;;;;;;5.10;1.70;;;16.50;99.90;;;;;;5096890;28;20372;-87
2022/07/07 03:47:55;;;;;;;7.50;1.73;;;16.50;99.90;;;;;;5064027;28;20062;-88
2022/07/07 03:50:21;;;;;;;5.20;1.45;;;16.40;99.90;;;;;;5046028;28;20069;-89
2022/07/07 03:52:47;;;;;;;5.88;1.70;;;16.40;99.90;;;;;;5078763;28;20042;-88
2022/07/07 03:55:12;;;;;;;6.28;1.80;;;16.30;99.90;;;;;;5078143;28;20082;-79
2022/07/07 03:57:39;;;;;;;7.28;1.90;;;16.30;99.90;;;;;;5093957;28;20040;-79
2022/07/07 04:00:06;;;;;;;5.07;1.58;;;16.30;99.90;;;;;;5043970;28;20044;-79
2022/07/07 04:02:31;;;;;;;6.50;1.90;;;16.20;99.90;;;;;;5077166;28;20039;-78
2022/07/07 04:04:57;;;;;;;6.55;2.15;;;16.20;99.90;;;;;;5060486;28;20035;-78
2022/07/07 04:07:23;;;;;;;9.25;2.88;;;16.20;99.90;;;;;;5060230;28;20046;-78
2022/07/07 04:09:48;;;;;;;6.63;1.90;;;16.20;99.90;;;;;;5059675;28;20043;-78
2022/07/07 04:12:14;;;;;;;7.82;1.98;;;16.20;99.90;;;;;;5078412;28;20043;-83
2022/07/07 04:14:40;;;;;;;5.88;1.48;;;16.20;99.90;;;;;;5062430;28;20118;-83
2022/07/07 04:17:06;;;;;;;6.53;1.75;;;16.20;99.90;;;;;;5079841;28;20506;-82
2022/07/07 04:19:32;;;;;;;7.13;1.60;;;16.20;99.90;;;;;;5096927;28;20043;-83
2022/07/07 04:21:57;;;;;;;7.15;1.50;;;16.20;99.90;;;;;;5063053;28;20047;-83
2022/07/07 04:24:23;;;;;;;8.35;2.03;;;16.20;99.90;;;;;;5078316;28;20078;-83
2022/07/07 04:26:49;;;;;;;6.18;1.30;;;16.20;99.90;;;;;;5078234;28;20043;-77
2022/07/07 04:29:15;;;;;;;7.47;1.38;;;16.10;99.90;;;;;;5044970;28;20135;-77
2022/07/07 04:31:44;;;;;;;9.43;1.90;;;16.10;99.90;;;;;;5062936;28;20131;-84
2022/07/07 04:34:11;;;;;;;9.50;1.70;;;16.00;99.90;;;;;;5063963;28;20035;-83
2022/07/07 04:36:36;;;;;;;7.55;1.60;;;16.00;99.90;;;;;;5096810;28;20054;-83
2022/07/07 04:39:23;;;;;;;6.60;1.30;;;16.00;99.90;;;;;;5152067;27;20405;-84
2022/07/07 04:41:49;;;;;;;7.78;1.52;;;16.00;99.90;;;;;;5081567;28;20480;-85
2022/07/07 04:44:15;;;;;;;9.23;1.48;;;15.90;99.90;;;;;;5098259;28;20039;-85
2022/07/07 04:46:40;;;;;;;11.38;2.10;;;15.90;99.90;;;;;;5098963;28;20035;-85
2022/07/07 04:49:06;;;;;;;5.32;1.10;;;15.90;99.90;;;;;;5081884;28;20035;-78
2022/07/07 04:51:32;;;;;;;9.32;1.60;;;15.90;99.90;;;;;;5080791;28;20043;-76
2022/07/07 04:53:58;;;;;;;9.25;1.70;;;15.90;99.90;;;;;;5080824;28;20039;-83
2022/07/07 04:56:23;;;;;;;4.47;1.48;;;15.90;99.90;;;;;;5098380;28;20126;-83
2022/07/07 04:58:49;;;;;;;6.95;1.20;;;15.90;99.90;;;;;;5080900;28;20127;-83
2022/07/07 05:01:15;;;;;;;8.65;1.52;;;15.90;99.90;;;;;;5097882;28;20486;-85
2022/07/07 05:03:40;;;;;;;5.65;1.70;;;15.90;99.90;;;;;;5081425;28;20035;-85
2022/07/07 05:06:06;;;;;;;10.68;1.95;;;15.80;99.90;;;;;;5064062;28;20067;-85
2022/07/07 05:08:32;;;;;;;8.50;1.92;;;15.80;99.90;;;;;;5098601;28;20126;-85
2022/07/07 05:10:57;;;;;;;8.35;1.73;;;15.80;99.90;;;;;;5116025;28;20075;-85
2022/07/07 05:13:23;;;;;;;5.35;1.38;;;15.80;99.90;;;;;;5115489;28;20092;-85
2022/07/07 05:15:49;;;;;;;7.05;1.52;;;15.80;99.90;;;;;;5097418;28;20050;-85
2022/07/07 05:18:15;;;;;;;9.00;1.70;;;15.80;99.90;;;;;;5097167;28;20122;-85
2022/07/07 05:20:41;;;;;;;8.93;1.92;;;15.90;99.90;;;;;;5098237;28;20079;-85
2022/07/07 05:23:07;;;;;;;6.85;1.45;;;15.80;99.90;;;;;;5064019;28;20046;-85
2022/07/07 05:25:33;;;;;;;6.78;1.70;;;15.90;99.90;;;;;;5114408;28;20111;-79
2022/07/07 05:27:58;;;;;;;8.32;1.70;;;15.80;99.90;;;;;;5096414;28;20039;-79
2022/07/07 05:30:24;;;;;;;11.90;1.90;;;15.90;99.90;;;;;;5095776;28;20039;-86
2022/07/07 05:32:50;;;;;;;10.55;1.80;;;15.90;99.90;;;;;;5114560;28;20403;-85
2022/07/07 05:35:16;;;;;;;7.97;1.88;;;15.90;99.90;;;;;;5081281;28;20100;-85
2022/07/07 05:37:42;;;;;;;8.52;1.88;;;15.90;99.90;;;;;;5097329;28;20052;-85
2022/07/07 05:40:08;;;;;;;13.77;2.20;;;16.00;99.90;;;;;;5097298;28;20146;-85
2022/07/07 05:42:34;;;;;;;10.32;1.85;;;16.00;99.90;;;;;;5080995;28;20039;-86
2022/07/07 05:45:00;;;;;;;7.72;2.15;;;16.00;99.90;;;;;;5113865;28;20506;-86
2022/07/07 05:47:26;;;;;;;12.13;2.53;;;16.00;99.90;;;;;;5062609;28;20039;-85
2022/07/07 05:49:53;;;;;;;9.85;1.73;;;16.00;99.90;;;;;;5087296;28;20122;-85
2022/07/07 05:52:19;;;;;;;10.40;1.75;;;16.10;99.90;;;;;;5101210;28;20073;-86
2022/07/07 05:54:45;;;;;;;6.47;1.60;;;16.10;99.90;;;;;;5100927;28;20040;-85
2022/07/07 05:57:10;;;;;;;7.07;1.98;;;16.20;99.90;;;;;;5066112;28;20047;-85
2022/07/07 05:59:36;;;;;;;8.07;1.70;;;16.20;99.90;;;;;;5066653;28;20035;-86
2022/07/07 06:02:02;;;;;;;7.93;1.77;;;16.20;99.90;;;;;;5067558;28;20484;-85
2022/07/07 06:04:27;;;;;;;7.70;1.70;;;16.20;99.90;;;;;;5050046;28;20040;-85
2022/07/07 06:06:53;;;;;;;8.73;2.15;;;16.20;99.90;;;;;;5082193;28;20049;-85
2022/07/07 06:09:19;;;;;;;7.22;1.95;;;16.20;99.90;;;;;;5098854;28;20487;-85
2022/07/07 06:11:45;;;;;;;8.50;1.75;;;16.20;99.90;;;;;;5083071;28;20044;-85
2022/07/07 06:14:11;;;;;;;7.65;1.98;;;16.20;99.90;;;;;;5050105;28;20050;-86
2022/07/07 06:16:40;;;;;;;11.48;1.90;;;16.20;99.90;;;;;;5066197;28;20032;-85
2022/07/07 06:19:10;;;;;;;9.40;1.85;;;16.10;99.90;;;;;;5084169;28;20050;-86
2022/07/07 06:21:37;;;;;;;6.18;1.70;;;16.10;99.90;;;;;;5084574;28;20031;-86
2022/07/07 06:24:03;;;;;;;9.02;2.05;;;16.20;99.90;;;;;;5066156;28;20376;-85
2022/07/07 06:26:28;;;;;;;12.15;2.13;;;16.20;99.90;;;;;;5082284;28;20107;-86
2022/07/07 06:28:54;;;;;;;10.38;2.35;;;16.40;99.90;;;;;;5082592;28;20039;-86
2022/07/07 06:31:20;;;;;;;7.03;1.67;;;16.50;99.90;;;;;;5098848;28;20044;-86
2022/07/07 06:33:46;;;;;;;8.38;2.03;;;16.60;99.90;;;;;;5098211;28;20040;-86
2022/07/07 06:36:12;;;;;;;12.90;2.08;;;16.70;99.90;;;;;;5049517;28;20044;-86
2022/07/07 06:38:38;;;;;;;8.88;1.80;;;16.70;99.90;;;;;;5098632;28;20067;-86
2022/07/07 06:41:03;;;;;;;7.03;2.05;;;16.70;99.90;;;;;;5083089;28;20515;-85
2022/07/07 06:43:29;;;;;;;6.93;2.30;;;16.60;99.90;;;;;;5082324;28;20475;-87
2022/07/07 06:45:55;;;;;;;6.88;1.40;;;16.70;99.90;;;;;;5082503;28;20036;-86
2022/07/07 06:48:20;;;;;;;6.30;1.55;;;16.70;99.90;;;;;;5082839;28;20039;-86
2022/07/07 06:50:46;;;;;;;8.75;1.65;;;16.80;99.90;;;;;;5098740;28;20043;-86
2022/07/07 06:53:12;;;;;;;7.30;1.38;;;16.80;99.90;;;;;;5065259;28;20047;-78
2022/07/07 06:55:38;;;;;;;7.35;1.88;;;16.80;99.90;;;;;;5064678;28;20095;-78
2022/07/07 06:58:04;;;;;;;8.55;1.27;;;16.70;99.90;;;;;;5096895;28;20036;-78
2022/07/07 07:00:30;;;;;;;7.85;1.77;;;16.70;99.90;;;;;;5079917;28;20084;-78
2022/07/07 07:02:56;;;;;;;10.93;1.85;;;16.50;99.90;;;;;;5081009;28;20040;-78
2022/07/07 07:05:22;;;;;;;3.92;1.05;;;16.50;99.90;;;;;;5099396;28;20043;-85
2022/07/07 07:07:48;;;;;;;6.35;1.40;;;16.60;99.90;;;;;;5099602;28;20053;-86
2022/07/07 07:10:14;;;;;;;5.07;1.10;;;16.80;99.90;;;;;;5082448;28;20398;-85
2022/07/07 07:12:40;;;;;;;6.35;1.15;;;17.00;99.90;;;;;;5082325;28;20035;-86
2022/07/07 07:15:07;;;;;;;4.70;1.08;;;17.10;99.90;;;;;;5098517;28;20039;-86
2022/07/07 07:17:32;;;;;;;4.80;1.20;;;17.30;99.90;;;;;;5097613;28;20466;-78
2022/07/07 07:19:58;;;;;;;4.70;1.17;;;17.40;99.90;;;;;;5064303;28;20563;-78
2022/07/07 07:22:25;;;;;;;5.57;1.23;;;17.40;99.90;;;;;;5064752;28;20071;-86
2022/07/07 07:24:51;;;;;;;5.20;1.38;;;17.30;99.90;;;;;;5099329;28;20044;-86
2022/07/07 07:27:17;;;;;;;4.05;1.15;;;17.30;99.90;;;;;;5099616;28;20043;-86
2022/07/07 07:29:43;;;;;;;2.92;0.90;;;17.10;99.90;;;;;;5082566;28;20373;-86
2022/07/07 07:32:08;;;;;;;4.65;1.02;;;17.10;99.90;;;;;;5082024;28;20042;-86
2022/07/07 07:34:34;;;;;;;5.38;1.30;;;17.10;99.90;;;;;;5082055;28;20101;-86
2022/07/07 07:37:00;;;;;;;9.00;1.50;;;17.30;99.90;;;;;;5065328;28;20081;-79
2022/07/07 07:39:27;;;;;;;2.53;0.90;;;17.60;99.90;;;;;;5097982;28;20434;-78
2022/07/07 07:41:52;;;;;;;6.60;1.30;;;18.00;99.90;;;;;;5065078;28;20439;-79
2022/07/07 07:47:03;;;;;;;4.40;1.40;;;18.50;99.90;;;;;;5083802;28;20036;-86
2022/07/07 07:49:28;;;;;;;5.32;1.38;;;18.60;99.90;;;;;;5082593;28;20116;-86
2022/07/07 07:51:54;;;;;;;3.92;1.15;;;18.50;99.90;;;;;;5081777;28;20449;-86
2022/07/07 07:54:20;;;;;;;4.43;1.23;;;18.30;99.90;;;;;;5099085;28;20040;-86
2022/07/07 07:56:45;;;;;;;3.55;1.20;;;18.10;99.90;;;;;;5082697;28;20078;-87
2022/07/07 07:59:11;;;;;;;3.03;1.20;;;17.90;99.90;;;;;;5081318;28;20047;-78
2022/07/07 08:01:37;;;;;;;3.38;1.00;;;17.80;99.90;;;;;;5063079;28;20106;-78
2022/07/07 08:04:02;;;;;;;2.75;0.88;;;17.70;99.90;;;;;;5065659;28;20027;-78
2022/07/07 08:06:28;;;;;;;3.33;1.05;;;17.70;99.90;;;;;;5104879;28;20042;-78
2022/07/07 08:08:54;;;;;;;4.22;1.10;;;17.80;99.90;;;;;;5053294;28;20487;-78
2022/07/07 08:11:19;;;;;;;4.55;1.00;;;18.00;99.90;;;;;;5086840;28;20043;-78
2022/07/07 08:13:45;;;;;;;4.05;1.02;;;18.30;99.90;;;;;;5063274;28;20046;-79
2022/07/07 08:16:11;;;;;;;6.63;1.30;;;18.60;99.90;;;;;;5080774;28;20097;-78
2022/07/07 08:18:36;;;;;;;5.38;1.35;;;18.70;99.90;;;;;;5081482;28;20043;-78
2022/07/07 08:21:02;;;;;;;6.90;1.50;;;18.70;99.90;;;;;;5065096;28;20070;-86
2022/07/07 08:23:28;;;;;;;8.00;1.75;;;18.50;99.90;;;;;;5081683;28;20042;-85
2022/07/07 08:25:54;;;;;;;6.25;1.92;;;18.50;99.90;;;;;;5064934;28;20067;-86
2022/07/07 08:28:20;;;;;;;4.53;1.30;;;18.50;99.90;;;;;;5081193;28;20043;-79
2022/07/07 08:30:46;;;;;;;8.90;1.60;;;18.40;99.90;;;;;;5063919;28;20035;-78
2022/07/07 08:33:12;;;;;;;7.10;1.25;;;18.30;99.90;;;;;;5063934;28;20043;-78
2022/07/07 08:35:37;;;;;;;5.57;1.35;;;18.10;99.90;;;;;;5063363;28;20043;-78
2022/07/07 08:38:03;;;;;;;4.85;1.67;;;17.90;99.90;;;;;;5063421;28;20051;-78
2022/07/07 08:40:29;;;;;;;2.90;1.08;;;17.70;99.90;;;;;;5080643;28;20434;-78
2022/07/07 08:42:55;;;;;;;2.28;0.70;;;17.50;99.90;;;;;;5046689;28;20035;-78
2022/07/07 08:45:21;;;;;;;3.10;0.90;;;17.30;99.90;;;;;;5062763;28;20118;-78
2022/07/07 08:47:47;;;;;;;3.78;1.02;;;17.30;99.90;;;;;;5063432;28;20099;-78
2022/07/07 08:50:13;;;;;;;3.50;0.98;;;17.30;99.90;;;;;;5097031;28;20078;-78
2022/07/07 08:52:39;;;;;;;4.78;1.00;;;17.50;99.90;;;;;;5080343;28;20071;-78
2022/07/07 08:55:07;;;;;;;3.47;1.20;;;17.80;99.90;;;;;;5080088;28;20040;-78
2022/07/07 08:57:33;;;;;;;3.60;1.00;;;18.10;99.90;;;;;;5062937;28;20043;-79
2022/07/07 08:59:59;;;;;;;2.38;1.10;;;18.30;99.90;;;;;;5063698;28;20032;-86
2022/07/07 09:02:25;;;;;;;5.45;1.15;;;18.60;99.90;;;;;;5064832;28;20441;-86
2022/07/07 09:04:51;;;;;;;5.35;1.33;;;18.90;99.90;;;;;;5097893;28;20046;-86
2022/07/07 09:07:18;;;;;;;5.95;1.58;;;19.10;99.90;;;;;;5062959;28;20050;-87
2022/07/07 09:09:46;;;;;;;4.30;1.55;;;19.10;99.90;;;;;;5079136;28;20425;-78
2022/07/07 09:12:14;;;;;;;6.30;1.50;;;19.00;99.90;;;;;;5078234;28;20456;-78
2022/07/07 09:14:42;;;;;;;5.55;1.45;;;18.80;99.90;;;;;;5079350;28;20055;-78
2022/07/07 09:17:31;;;;;;;7.18;1.63;;;18.70;99.90;;;;;;5081001;28;20032;-86
2022/07/07 09:20:10;;;;;;;4.68;1.50;;;18.60;99.90;;;;;;5082142;28;20391;-85
2022/07/07 09:22:42;;;;;;;5.38;1.73;;;18.60;99.90;;;;;;5099235;28;20043;-86
2022/07/07 09:25:08;;;;;;;8.10;1.70;;;18.60;99.90;;;;;;5100724;28;20064;-85
2022/07/07 09:28:00;;;;;;;4.32;1.80;;;18.50;99.90;;;;;;5084969;28;20109;-85
2022/07/07 09:30:40;;;;;;;6.25;1.45;;;18.50;99.90;;;;;;5101986;28;20096;-85
2022/07/07 09:33:07;;;;;;;5.72;1.55;;;18.30;99.90;;;;;;5101782;28;20043;-85
2022/07/07 09:38:22;;;;;;;5.55;1.48;;;18.20;99.90;;;;;;5101022;28;20055;-85
2022/07/07 09:41:12;;;;;;;5.47;1.67;;;18.20;99.90;;;;;;5084019;28;20043;-85
2022/07/07 09:43:44;;;;;;;5.35;1.95;;;18.30;99.90;;;;;;5101007;28;20487;-85
2022/07/07 09:46:11;;;;;;;6.72;1.85;;;18.40;99.90;;;;;;5084070;28;20106;-76
2022/07/07 09:48:39;;;;;;;7.65;1.50;;;18.50;99.90;;;;;;5082809;28;20556;-77
2022/07/07 09:51:11;;;;;;;4.18;1.45;;;18.70;99.90;;;;;;5082319;28;20073;-77
2022/07/07 09:53:52;;;;;;;5.47;1.35;;;18.70;99.90;;;;;;5082361;28;20122;-77
2022/07/07 09:56:26;;;;;;;5.50;1.48;;;18.60;99.90;;;;;;5082356;28;20089;-78
2022/07/07 09:58:52;;;;;;;6.20;1.30;;;18.60;99.90;;;;;;5082255;28;20072;-78
2022/07/07 10:01:18;;;;;;;3.90;1.48;;;18.60;99.90;;;;;;5083666;28;20050;-77
2022/07/07 10:03:44;;;;;;;6.35;1.65;;;18.50;99.90;;;;;;5066338;28;20139;-77
2022/07/07 10:06:11;;;;;;;6.63;1.77;;;18.60;99.90;;;;;;5066300;28;20438;-78
2022/07/07 10:08:43;;;;;;;4.13;1.23;;;18.70;99.90;;;;;;5065697;28;20043;-77
2022/07/07 10:11:11;;;;;;;7.75;1.55;;;18.80;99.90;;;;;;5098546;28;20572;-85
2022/07/07 10:13:39;;;;;;;4.80;1.52;;;18.90;99.90;;;;;;5099866;28;20050;-85
2022/07/07 10:16:06;;;;;;;4.78;1.40;;;19.00;99.90;;;;;;5100999;28;20086;-85
2022/07/07 10:18:33;;;;;;;5.22;1.50;;;19.30;99.90;;;;;;5085244;28;20040;-85
2022/07/07 10:20:59;;;;;;;6.25;1.27;;;19.50;99.90;;;;;;5066384;28;20043;-85
2022/07/07 10:23:26;;;;;;;4.70;1.10;;;19.50;99.90;;;;;;5065948;28;20107;-85
2022/07/07 10:26:05;;;;;;;2.15;0.93;;;19.40;99.90;;;;;;5084029;28;20453;-85
2022/07/07 10:28:51;;;;;;;2.58;1.08;;;19.10;99.90;;;;;;5100612;28;20085;-85
2022/07/07 10:31:25;;;;;;;2.40;0.90;;;19.00;99.90;;;;;;5082398;28;20097;-85
2022/07/07 10:34:11;;;;;;;4.15;0.90;;;18.70;99.90;;;;;;5100453;28;20530;-85
2022/07/07 10:36:49;;;;;;;4.38;1.30;;;18.50;99.90;;;;;;5066105;28;20039;-86
2022/07/07 10:39:22;;;;;;;4.78;1.25;;;18.50;99.90;;;;;;5081944;28;20087;-85
2022/07/07 10:42:04;;;;;;;6.57;1.27;;;18.50;99.90;;;;;;5099622;28;20084;-85
2022/07/07 10:44:32;;;;;;;4.70;1.20;;;18.50;99.90;;;;;;5098920;28;20127;-85
2022/07/07 10:47:18;;;;;;;2.38;1.10;;;18.60;99.90;;;;;;5066396;28;20035;-83
2022/07/07 10:49:45;;;;;;;3.63;1.40;;;18.80;99.90;;;;;;5082285;28;20159;-85
2022/07/07 10:52:12;;;;;;;5.32;1.17;;;19.00;99.90;;;;;;5081582;28;20105;-85
2022/07/07 10:54:55;;;;;;;5.20;1.38;;;18.90;99.90;;;;;;5065320;28;20088;-85
2022/07/07 10:57:23;;;;;;;5.85;1.55;;;18.70;99.90;;;;;;5081299;28;20387;-86
2022/07/07 11:00:04;;;;;;;3.85;1.02;;;18.60;99.90;;;;;;5064985;28;20043;-84
2022/07/07 11:02:51;;;;;;;5.07;1.17;;;18.50;99.90;;;;;;5098560;28;20044;-85
2022/07/07 11:05:16;;;;;;;3.72;1.08;;;18.30;99.90;;;;;;5098760;28;20035;-85
2022/07/07 11:08:08;;;;;;;5.70;1.40;;;18.30;99.90;;;;;;5081856;28;20180;-86
2022/07/07 11:10:49;;;;;;;5.65;1.52;;;18.10;99.90;;;;;;5081640;28;20054;-86
2022/07/07 11:13:34;;;;;;;12.23;2.50;;;18.10;99.90;;;;;;5099168;28;20044;-86
2022/07/07 11:16:22;;;;;;;7.47;1.77;;;18.10;99.90;;;;;;5099073;28;20069;-85
2022/07/07 11:19:00;;;;;;;6.82;1.80;;;18.30;99.90;;;;;;5099442;28;20100;-85
2022/07/07 11:21:55;;;;;;;10.48;2.20;;;18.40;99.90;;;;;;5083082;28;20035;-85
2022/07/07 11:24:24;;;;;;;12.43;2.15;;;18.60;99.90;;;;;;5096852;28;20055;-85
2022/07/07 11:27:01;;;;;;;6.50;1.92;;;18.80;99.90;;;;;;5081960;28;20036;-84
2022/07/07 11:29:28;;;;;;;7.90;2.00;;;18.90;99.90;;;;;;5099294;28;20039;-85
2022/07/07 11:32:07;;;;;;;7.90;1.80;;;19.00;99.90;;;;;;5098688;28;20043;-85
2022/07/07 11:34:44;;;;;;;5.72;1.70;;;19.00;99.90;;;;;;5082224;28;20044;-84
2022/07/07 11:37:26;;;;;;;10.02;2.28;;;19.10;99.90;;;;;;5065579;28;20070;-85
2022/07/07 11:39:52;;;;;;;12.05;2.38;;;19.10;99.90;;;;;;5082083;28;20044;-85
2022/07/07 11:42:18;;;;;;;14.73;3.15;;;18.80;99.90;;;;;;5081652;28;20118;-85
2022/07/07 11:44:44;;;;;;;11.55;2.58;;;18.50;99.90;;;;;;5099089;28;20093;-85
2022/07/07 11:47:10;;;;;;;11.70;2.78;;;18.30;99.90;;;;;;5080958;28;20056;-84
2022/07/07 11:49:36;;;;;;;10.55;2.80;;;18.00;99.90;;;;;;5081487;28;20042;-85
2022/07/07 11:52:01;;;;;;;12.95;2.55;;;17.90;99.90;;;;;;5080633;28;20035;-85
2022/07/07 11:54:27;;;;;;;14.85;2.67;;;18.00;99.90;;;;;;5066502;28;20046;-86
2022/07/07 11:56:53;;;;;;;8.85;2.58;;;18.10;99.90;;;;;;5082543;28;20480;-85
2022/07/07 11:59:21;;;;;;;16.10;2.90;;;18.30;99.90;;;;;;5082442;28;20112;-85
2022/07/07 12:01:50;;;;;;;10.10;2.20;;;18.50;99.90;;;;;;5064397;28;20040;-85
2022/07/07 12:04:21;;;;;;;10.15;2.05;;;18.60;99.90;;;;;;5098337;28;20039;-86
2022/07/07 12:06:47;;;;;;;10.40;2.38;;;18.60;99.90;;;;;;5098803;28;20103;-86
2022/07/07 12:09:13;;;;;;;7.63;1.88;;;18.70;99.90;;;;;;5081562;28;20039;-85
2022/07/07 12:11:41;;;;;;;9.68;2.10;;;18.80;99.90;;;;;;5064712;28;20055;-85
2022/07/07 12:14:09;;;;;;;8.00;1.95;;;18.80;99.90;;;;;;5098000;28;20032;-86
2022/07/07 12:16:49;;;;;;;15.10;2.35;;;18.80;99.90;;;;;;5080476;28;20043;-86
2022/07/07 12:19:15;;;;;;;8.55;2.38;;;18.70;99.90;;;;;;5081462;28;20032;-86
2022/07/07 12:21:45;;;;;;;6.95;1.88;;;18.70;99.90;;;;;;5098189;28;20039;-87
2022/07/07 12:24:13;;;;;;;11.07;2.58;;;18.80;99.90;;;;;;5080478;28;20046;-87
2022/07/07 12:26:48;;;;;;;7.50;1.65;;;18.80;99.90;;;;;;5081572;28;20036;-86
2022/07/07 12:29:18;;;;;;;8.35;1.95;;;18.90;99.90;;;;;;5065334;28;20120;-86
2022/07/07 12:31:48;;;;;;;11.80;2.10;;;19.00;99.90;;;;;;5081374;28;20044;-85
2022/07/07 12:34:16;;;;;;;7.90;2.10;;;19.00;99.90;;;;;;5081010;28;20040;-85
2022/07/07 12:36:44;;;;;;;9.05;1.92;;;19.00;99.90;;;;;;5081724;28;20050;-86
2022/07/07 12:39:10;;;;;;;9.50;1.98;;;19.00;99.90;;;;;;5097513;28;20515;-86
2022/07/07 12:41:39;;;;;;;6.68;2.00;;;19.00;99.90;;;;;;5064681;28;20046;-86
2022/07/07 12:44:19;;;;;;;5.95;1.48;;;19.00;99.90;;;;;;5096081;28;20040;-78
2022/07/07 12:46:45;;;;;;;9.70;2.25;;;19.00;99.90;;;;;;5096727;28;20036;-78
2022/07/07 12:49:12;;;;;;;11.18;2.03;;;19.00;99.90;;;;;;5079828;28;20097;-78
2022/07/07 12:51:42;;;;;;;10.32;2.25;;;19.00;99.90;;;;;;5096302;28;20052;-78
2022/07/07 12:54:20;;;;;;;8.43;1.70;;;19.00;99.90;;;;;;5079093;28;20039;-78
2022/07/07 12:56:46;;;;;;;8.48;1.70;;;18.80;99.90;;;;;;5081819;28;20117;-78